sensor_id;sensor_type;location;lat;lon;timestamp;temperature;humidity
38902;DHT22;24661;53.566;9.910;2023-04-23T00:00:34;15.20;99.90
38902;DHT22;24661;53.566;9.910;2023-04-23T00:03:05;15.10;99.90
38902;DHT22;24661;53.566;9.910;2023-04-23T00:05:35;15.10;99.90
38902;DHT22;24661;53.566;9.910;2023-04-23T00:08:04;15.10;99.90
38902;DHT22;24661;53.566;9.910;2023-04-23T00:10:30;15.00;99.90
38902;DHT22;24661;53.566;9.910;2023-04-23T00:12:56;15.10;99.90
38902;DHT22;24661;53.566;9.910;2023-04-23T00:15:23;15.10;99.90
38902;DHT22;24661;53.566;9.910;2023-04-23T00:17:49;15.00;99.90
38902;DHT22;24661;53.566;9.910;2023-04-23T00:20:15;15.00;99.90
38902;DHT22;24661;53.566;9.910;2023-04-23T00:22:42;14.90;99.90
38902;DHT22;24661;53.566;9.910;2023-04-23T00:25:08;14.90;99.90
38902;DHT22;24661;53.566;9.910;2023-04-23T00:27:34;14.90;99.90
38902;DHT22;24661;53.566;9.910;2023-04-23T00:30:00;14.80;99.90
38902;DHT22;24661;53.566;9.910;2023-04-23T00:32:25;14.90;99.90
38902;DHT22;24661;53.566;9.910;2023-04-23T00:34:51;14.80;99.90
38902;DHT22;24661;53.566;9.910;2023-04-23T00:37:16;14.80;99.90
38902;DHT22;24661;53.566;9.910;2023-04-23T00:39:43;14.80;99.90
38902;DHT22;24661;53.566;9.910;2023-04-23T00:42:09;14.70;99.90
38902;DHT22;24661;53.566;9.910;2023-04-23T00:44:39;14.70;99.90
38902;DHT22;24661;53.566;9.910;2023-04-23T00:47:06;14.70;99.90
38902;DHT22;24661;53.566;9.910;2023-04-23T00:49:33;14.60;99.90
38902;DHT22;24661;53.566;9.910;2023-04-23T00:51:58;14.50;99.90
38902;DHT22;24661;53.566;9.910;2023-04-23T00:54:25;14.50;99.90
38902;DHT22;24661;53.566;9.910;2023-04-23T00:56:51;14.50;99.90
38902;DHT22;24661;53.566;9.910;2023-04-23T00:59:18;14.50;99.90
38902;DHT22;24661;53.566;9.910;2023-04-23T01:01:44;14.40;99.90
38902;DHT22;24661;53.566;9.910;2023-04-23T01:04:15;14.60;99.90
38902;DHT22;24661;53.566;9.910;2023-04-23T01:06:41;14.50;99.90
38902;DHT22;24661;53.566;9.910;2023-04-23T01:09:08;14.40;99.90
38902;DHT22;24661;53.566;9.910;2023-04-23T01:11:38;14.40;99.90
38902;DHT22;24661;53.566;9.910;2023-04-23T01:14:03;14.40;99.90
38902;DHT22;24661;53.566;9.910;2023-04-23T01:16:29;14.40;99.90
38902;DHT22;24661;53.566;9.910;2023-04-23T01:18:55;14.40;99.90
38902;DHT22;24661;53.566;9.910;2023-04-23T01:21:21;14.40;99.90
38902;DHT22;24661;53.566;9.910;2023-04-23T01:23:48;14.40;99.90
38902;DHT22;24661;53.566;9.910;2023-04-23T01:26:13;14.40;99.90
38902;DHT22;24661;53.566;9.910;2023-04-23T01:28:40;14.30;99.90
38902;DHT22;24661;53.566;9.910;2023-04-23T01:31:07;14.40;99.90
38902;DHT22;24661;53.566;9.910;2023-04-23T01:33:33;14.30;99.90
38902;DHT22;24661;53.566;9.910;2023-04-23T01:35:59;14.30;99.90
38902;DHT22;24661;53.566;9.910;2023-04-23T01:38:27;14.30;99.90
38902;DHT22;24661;53.566;9.910;2023-04-23T01:40:55;14.30;99.90
38902;DHT22;24661;53.566;9.910;2023-04-23T01:43:21;14.30;99.90
38902;DHT22;24661;53.566;9.910;2023-04-23T01:45:47;14.30;99.90
38902;DHT22;24661;53.566;9.910;2023-04-23T01:48:13;14.30;99.90
38902;DHT22;24661;53.566;9.910;2023-04-23T01:50:40;14.30;99.90
38902;DHT22;24661;53.566;9.910;2023-04-23T01:53:07;14.20;99.90
38902;DHT22;24661;53.566;9.910;2023-04-23T01:55:35;14.00;99.90
38902;DHT22;24661;53.566;9.910;2023-04-23T01:58:02;13.50;99.90
38902;DHT22;24661;53.566;9.910;2023-04-23T02:00:27;13.20;99.90
38902;DHT22;24661;53.566;9.910;2023-04-23T02:02:53;12.90;99.90
38902;DHT22;24661;53.566;9.910;2023-04-23T02:05:20;12.70;99.90
38902;DHT22;24661;53.566;9.910;2023-04-23T02:07:47;12.60;99.90
38902;DHT22;24661;53.566;9.910;2023-04-23T02:10:13;12.40;99.90
38902;DHT22;24661;53.566;9.910;2023-04-23T02:12:39;12.30;99.90
38902;DHT22;24661;53.566;9.910;2023-04-23T02:15:07;12.20;99.90
38902;DHT22;24661;53.566;9.910;2023-04-23T02:17:32;12.10;99.90
38902;DHT22;24661;53.566;9.910;2023-04-23T02:19:58;11.90;99.90
38902;DHT22;24661;53.566;9.910;2023-04-23T02:22:24;11.70;99.90
38902;DHT22;24661;53.566;9.910;2023-04-23T02:24:51;11.70;99.90
38902;DHT22;24661;53.566;9.910;2023-04-23T02:27:17;11.50;99.90
38902;DHT22;24661;53.566;9.910;2023-04-23T02:29:44;11.50;99.90
38902;DHT22;24661;53.566;9.910;2023-04-23T02:32:09;11.40;99.90
38902;DHT22;24661;53.566;9.910;2023-04-23T02:34:36;11.30;99.90
38902;DHT22;24661;53.566;9.910;2023-04-23T02:37:02;11.20;99.90
38902;DHT22;24661;53.566;9.910;2023-04-23T02:39:29;11.20;99.90
38902;DHT22;24661;53.566;9.910;2023-04-23T02:41:55;11.10;99.90
38902;DHT22;24661;53.566;9.910;2023-04-23T02:44:22;11.10;99.90
38902;DHT22;24661;53.566;9.910;2023-04-23T02:46:48;11.10;99.90
38902;DHT22;24661;53.566;9.910;2023-04-23T02:49:14;11.10;99.90
38902;DHT22;24661;53.566;9.910;2023-04-23T02:51:40;11.10;99.90
38902;DHT22;24661;53.566;9.910;2023-04-23T02:54:06;11.10;99.90
38902;DHT22;24661;53.566;9.910;2023-04-23T02:56:31;11.10;99.90
38902;DHT22;24661;53.566;9.910;2023-04-23T02:58:57;11.10;99.90
38902;DHT22;24661;53.566;9.910;2023-04-23T03:01:22;11.00;99.90
38902;DHT22;24661;53.566;9.910;2023-04-23T03:03:48;11.00;99.90
38902;DHT22;24661;53.566;9.910;2023-04-23T03:06:14;11.00;99.90
38902;DHT22;24661;53.566;9.910;2023-04-23T03:08:39;11.10;99.90
38902;DHT22;24661;53.566;9.910;2023-04-23T03:11:05;11.00;99.90
38902;DHT22;24661;53.566;9.910;2023-04-23T03:13:30;10.90;99.90
38902;DHT22;24661;53.566;9.910;2023-04-23T03:15:56;10.90;99.90
38902;DHT22;24661;53.566;9.910;2023-04-23T03:18:22;10.80;99.90
38902;DHT22;24661;53.566;9.910;2023-04-23T03:20:47;10.70;99.90
38902;DHT22;24661;53.566;9.910;2023-04-23T03:23:13;10.70;99.90
38902;DHT22;24661;53.566;9.910;2023-04-23T03:25:38;10.70;99.90
38902;DHT22;24661;53.566;9.910;2023-04-23T03:28:04;10.60;99.90
38902;DHT22;24661;53.566;9.910;2023-04-23T03:30:30;10.50;99.90
38902;DHT22;24661;53.566;9.910;2023-04-23T03:32:56;10.50;99.90
38902;DHT22;24661;53.566;9.910;2023-04-23T03:35:23;10.40;99.90
38902;DHT22;24661;53.566;9.910;2023-04-23T03:37:49;10.40;99.90
38902;DHT22;24661;53.566;9.910;2023-04-23T03:40:14;10.40;99.90
38902;DHT22;24661;53.566;9.910;2023-04-23T03:42:40;10.40;99.90
38902;DHT22;24661;53.566;9.910;2023-04-23T03:45:06;10.40;99.90
38902;DHT22;24661;53.566;9.910;2023-04-23T03:47:32;10.40;99.90
38902;DHT22;24661;53.566;9.910;2023-04-23T03:49:57;10.30;99.90
38902;DHT22;24661;53.566;9.910;2023-04-23T03:52:23;10.30;99.90
38902;DHT22;24661;53.566;9.910;2023-04-23T03:54:49;10.30;99.90
38902;DHT22;24661;53.566;9.910;2023-04-23T03:57:15;10.30;99.90
38902;DHT22;24661;53.566;9.910;2023-04-23T03:59:40;10.20;99.90
38902;DHT22;24661;53.566;9.910;2023-04-23T04:02:06;10.20;99.90
38902;DHT22;24661;53.566;9.910;2023-04-23T04:04:32;10.20;99.90
38902;DHT22;24661;53.566;9.910;2023-04-23T04:06:58;10.20;99.90
38902;DHT22;24661;53.566;9.910;2023-04-23T04:09:27;10.20;99.90
38902;DHT22;24661;53.566;9.910;2023-04-23T04:11:53;10.10;99.90
38902;DHT22;24661;53.566;9.910;2023-04-23T04:14:20;10.10;99.90
38902;DHT22;24661;53.566;9.910;2023-04-23T04:16:46;10.10;99.90
38902;DHT22;24661;53.566;9.910;2023-04-23T04:19:11;10.10;99.90
38902;DHT22;24661;53.566;9.910;2023-04-23T04:21:37;10.20;99.90
38902;DHT22;24661;53.566;9.910;2023-04-23T04:24:03;10.20;99.90
38902;DHT22;24661;53.566;9.910;2023-04-23T04:26:32;10.10;99.90
38902;DHT22;24661;53.566;9.910;2023-04-23T04:28:59;10.20;99.90
38902;DHT22;24661;53.566;9.910;2023-04-23T04:31:28;10.10;99.90
38902;DHT22;24661;53.566;9.910;2023-04-23T04:33:55;10.00;99.90
38902;DHT22;24661;53.566;9.910;2023-04-23T04:36:21;10.00;99.90
38902;DHT22;24661;53.566;9.910;2023-04-23T04:38:49;10.00;99.90
38902;DHT22;24661;53.566;9.910;2023-04-23T04:41:16;10.00;99.90
38902;DHT22;24661;53.566;9.910;2023-04-23T04:43:44;10.00;99.90
38902;DHT22;24661;53.566;9.910;2023-04-23T04:46:10;10.00;99.90
38902;DHT22;24661;53.566;9.910;2023-04-23T04:48:38;10.00;99.90
38902;DHT22;24661;53.566;9.910;2023-04-23T04:51:04;10.00;99.90
38902;DHT22;24661;53.566;9.910;2023-04-23T04:53:29;10.00;99.90
38902;DHT22;24661;53.566;9.910;2023-04-23T04:55:55;9.90;99.90
38902;DHT22;24661;53.566;9.910;2023-04-23T04:58:21;9.90;99.90
38902;DHT22;24661;53.566;9.910;2023-04-23T05:00:46;9.90;99.90
38902;DHT22;24661;53.566;9.910;2023-04-23T05:03:16;9.90;99.90
38902;DHT22;24661;53.566;9.910;2023-04-23T05:05:43;9.90;99.90
38902;DHT22;24661;53.566;9.910;2023-04-23T05:08:09;9.90;99.90
38902;DHT22;24661;53.566;9.910;2023-04-23T05:10:35;9.80;99.90
38902;DHT22;24661;53.566;9.910;2023-04-23T05:13:01;9.90;99.90
38902;DHT22;24661;53.566;9.910;2023-04-23T05:15:27;9.80;99.90
38902;DHT22;24661;53.566;9.910;2023-04-23T05:17:53;9.90;99.90
38902;DHT22;24661;53.566;9.910;2023-04-23T05:20:19;9.30;99.90
38902;DHT22;24661;53.566;9.910;2023-04-23T05:22:45;9.90;99.90
38902;DHT22;24661;53.566;9.910;2023-04-23T05:25:11;9.90;99.90
38902;DHT22;24661;53.566;9.910;2023-04-23T05:27:38;9.90;99.90
38902;DHT22;24661;53.566;9.910;2023-04-23T05:30:05;9.90;99.90
38902;DHT22;24661;53.566;9.910;2023-04-23T05:32:31;9.80;99.90
38902;DHT22;24661;53.566;9.910;2023-04-23T05:34:57;9.80;99.90
38902;DHT22;24661;53.566;9.910;2023-04-23T05:37:24;9.90;99.90
38902;DHT22;24661;53.566;9.910;2023-04-23T05:39:50;9.90;99.90
38902;DHT22;24661;53.566;9.910;2023-04-23T05:42:15;9.90;99.90
38902;DHT22;24661;53.566;9.910;2023-04-23T05:44:41;9.90;99.90
38902;DHT22;24661;53.566;9.910;2023-04-23T05:47:10;9.90;99.90
38902;DHT22;24661;53.566;9.910;2023-04-23T05:49:35;10.00;99.90
38902;DHT22;24661;53.566;9.910;2023-04-23T05:52:01;10.10;99.90
38902;DHT22;24661;53.566;9.910;2023-04-23T05:54:27;10.10;99.90
38902;DHT22;24661;53.566;9.910;2023-04-23T05:56:53;10.00;99.90
38902;DHT22;24661;53.566;9.910;2023-04-23T05:59:19;10.00;99.90
38902;DHT22;24661;53.566;9.910;2023-04-23T06:01:45;10.10;99.90
38902;DHT22;24661;53.566;9.910;2023-04-23T06:04:12;8.70;99.90
38902;DHT22;24661;53.566;9.910;2023-04-23T06:06:37;10.20;99.90
38902;DHT22;24661;53.566;9.910;2023-04-23T06:09:03;10.20;99.90
38902;DHT22;24661;53.566;9.910;2023-04-23T06:11:29;10.20;99.90
38902;DHT22;24661;53.566;9.910;2023-04-23T06:13:56;10.30;99.90
38902;DHT22;24661;53.566;9.910;2023-04-23T06:16:22;10.30;99.90
38902;DHT22;24661;53.566;9.910;2023-04-23T06:18:48;10.30;99.90
38902;DHT22;24661;53.566;9.910;2023-04-23T06:21:14;10.30;99.90
38902;DHT22;24661;53.566;9.910;2023-04-23T06:23:39;10.30;99.90
38902;DHT22;24661;53.566;9.910;2023-04-23T06:26:05;10.40;99.90
38902;DHT22;24661;53.566;9.910;2023-04-23T06:28:30;10.40;99.90
38902;DHT22;24661;53.566;9.910;2023-04-23T06:30:56;10.40;99.90
38902;DHT22;24661;53.566;9.910;2023-04-23T06:33:21;10.50;99.90
38902;DHT22;24661;53.566;9.910;2023-04-23T06:35:47;10.70;99.90
38902;DHT22;24661;53.566;9.910;2023-04-23T06:38:13;10.80;99.90
38902;DHT22;24661;53.566;9.910;2023-04-23T06:40:38;10.90;99.90
38902;DHT22;24661;53.566;9.910;2023-04-23T06:43:04;10.80;99.90
38902;DHT22;24661;53.566;9.910;2023-04-23T06:45:30;10.80;99.90
38902;DHT22;24661;53.566;9.910;2023-04-23T06:47:57;10.90;99.90
38902;DHT22;24661;53.566;9.910;2023-04-23T06:50:23;11.50;99.90
38902;DHT22;24661;53.566;9.910;2023-04-23T06:52:48;11.00;99.90
38902;DHT22;24661;53.566;9.910;2023-04-23T06:55:14;11.10;99.90
38902;DHT22;24661;53.566;9.910;2023-04-23T06:57:39;11.10;99.90
38902;DHT22;24661;53.566;9.910;2023-04-23T07:00:06;11.10;99.90
38902;DHT22;24661;53.566;9.910;2023-04-23T07:02:33;11.10;99.90
38902;DHT22;24661;53.566;9.910;2023-04-23T07:04:59;11.10;99.90
38902;DHT22;24661;53.566;9.910;2023-04-23T07:07:25;11.10;99.90
38902;DHT22;24661;53.566;9.910;2023-04-23T07:09:50;12.70;99.90
38902;DHT22;24661;53.566;9.910;2023-04-23T07:12:16;11.10;99.90
38902;DHT22;24661;53.566;9.910;2023-04-23T07:14:42;11.10;99.90
38902;DHT22;24661;53.566;9.910;2023-04-23T07:17:07;11.10;99.90
38902;DHT22;24661;53.566;9.910;2023-04-23T07:19:33;11.10;99.90
38902;DHT22;24661;53.566;9.910;2023-04-23T07:21:59;11.00;99.90
38902;DHT22;24661;53.566;9.910;2023-04-23T07:24:24;11.10;99.90
38902;DHT22;24661;53.566;9.910;2023-04-23T07:26:51;11.10;99.90
38902;DHT22;24661;53.566;9.910;2023-04-23T07:29:16;11.20;99.90
38902;DHT22;24661;53.566;9.910;2023-04-23T07:31:42;11.30;99.90
38902;DHT22;24661;53.566;9.910;2023-04-23T07:34:07;11.40;99.90
38902;DHT22;24661;53.566;9.910;2023-04-23T07:36:34;11.60;99.90
38902;DHT22;24661;53.566;9.910;2023-04-23T07:39:00;11.70;99.90
38902;DHT22;24661;53.566;9.910;2023-04-23T07:41:25;11.70;99.90
38902;DHT22;24661;53.566;9.910;2023-04-23T07:43:51;11.60;99.90
38902;DHT22;24661;53.566;9.910;2023-04-23T07:46:17;11.60;99.90
38902;DHT22;24661;53.566;9.910;2023-04-23T07:48:42;11.80;99.90
38902;DHT22;24661;53.566;9.910;2023-04-23T07:51:08;11.80;99.90
38902;DHT22;24661;53.566;9.910;2023-04-23T07:53:34;11.80;99.90
38902;DHT22;24661;53.566;9.910;2023-04-23T07:56:00;11.90;99.90
38902;DHT22;24661;53.566;9.910;2023-04-23T07:58:25;12.10;99.90
38902;DHT22;24661;53.566;9.910;2023-04-23T08:00:51;12.00;99.90
38902;DHT22;24661;53.566;9.910;2023-04-23T08:03:17;12.30;99.90
38902;DHT22;24661;53.566;9.910;2023-04-23T08:05:42;12.20;99.90
38902;DHT22;24661;53.566;9.910;2023-04-23T08:08:11;12.30;99.90
38902;DHT22;24661;53.566;9.910;2023-04-23T08:10:37;12.30;99.90
38902;DHT22;24661;53.566;9.910;2023-04-23T08:13:02;12.20;99.90
38902;DHT22;24661;53.566;9.910;2023-04-23T08:15:28;12.10;99.90
38902;DHT22;24661;53.566;9.910;2023-04-23T08:17:54;12.10;99.90
38902;DHT22;24661;53.566;9.910;2023-04-23T08:20:19;12.20;99.90
38902;DHT22;24661;53.566;9.910;2023-04-23T08:22:45;12.40;99.90
38902;DHT22;24661;53.566;9.910;2023-04-23T08:25:11;12.50;99.90
38902;DHT22;24661;53.566;9.910;2023-04-23T08:27:39;12.60;99.90
38902;DHT22;24661;53.566;9.910;2023-04-23T08:30:05;12.60;99.90
38902;DHT22;24661;53.566;9.910;2023-04-23T08:32:31;12.70;99.90
38902;DHT22;24661;53.566;9.910;2023-04-23T08:34:57;12.70;99.90
38902;DHT22;24661;53.566;9.910;2023-04-23T08:37:23;12.70;99.90
38902;DHT22;24661;53.566;9.910;2023-04-23T08:39:49;12.70;99.90
38902;DHT22;24661;53.566;9.910;2023-04-23T08:42:22;12.70;99.90
38902;DHT22;24661;53.566;9.910;2023-04-23T08:44:50;12.80;99.90
38902;DHT22;24661;53.566;9.910;2023-04-23T08:47:17;12.90;99.90
38902;DHT22;24661;53.566;9.910;2023-04-23T08:49:45;12.90;99.90
38902;DHT22;24661;53.566;9.910;2023-04-23T08:52:15;12.90;99.90
38902;DHT22;24661;53.566;9.910;2023-04-23T08:54:45;13.00;99.90
38902;DHT22;24661;53.566;9.910;2023-04-23T08:57:13;13.00;99.90
38902;DHT22;24661;53.566;9.910;2023-04-23T08:59:40;13.10;99.90
38902;DHT22;24661;53.566;9.910;2023-04-23T09:02:07;13.20;99.90
38902;DHT22;24661;53.566;9.910;2023-04-23T09:04:35;13.30;99.90
38902;DHT22;24661;53.566;9.910;2023-04-23T09:07:01;13.40;99.90
38902;DHT22;24661;53.566;9.910;2023-04-23T09:09:28;13.50;99.90
38902;DHT22;24661;53.566;9.910;2023-04-23T09:11:55;13.70;99.90
38902;DHT22;24661;53.566;9.910;2023-04-23T09:14:25;14.00;99.90
38902;DHT22;24661;53.566;9.910;2023-04-23T09:16:51;13.90;99.90
38902;DHT22;24661;53.566;9.910;2023-04-23T09:19:18;14.00;99.90
38902;DHT22;24661;53.566;9.910;2023-04-23T09:21:44;14.20;99.90
38902;DHT22;24661;53.566;9.910;2023-04-23T09:24:10;14.30;99.90
38902;DHT22;24661;53.566;9.910;2023-04-23T09:26:49;14.20;99.90
38902;DHT22;24661;53.566;9.910;2023-04-23T09:29:17;14.20;99.90
38902;DHT22;24661;53.566;9.910;2023-04-23T09:31:51;14.40;99.90
38902;DHT22;24661;53.566;9.910;2023-04-23T09:34:24;14.40;99.90
38902;DHT22;24661;53.566;9.910;2023-04-23T09:36:51;14.30;99.90
38902;DHT22;24661;53.566;9.910;2023-04-23T09:39:20;14.30;99.90
38902;DHT22;24661;53.566;9.910;2023-04-23T09:41:46;14.10;99.90
38902;DHT22;24661;53.566;9.910;2023-04-23T09:44:20;14.10;99.90
38902;DHT22;24661;53.566;9.910;2023-04-23T09:46:49;14.00;99.90
38902;DHT22;24661;53.566;9.910;2023-04-23T09:49:15;14.10;99.90
38902;DHT22;24661;53.566;9.910;2023-04-23T09:51:48;14.10;99.90
38902;DHT22;24661;53.566;9.910;2023-04-23T09:54:19;14.20;99.90
38902;DHT22;24661;53.566;9.910;2023-04-23T09:56:50;14.20;99.90
38902;DHT22;24661;53.566;9.910;2023-04-23T09:59:27;14.20;99.90
38902;DHT22;24661;53.566;9.910;2023-04-23T10:01:53;14.40;99.90
38902;DHT22;24661;53.566;9.910;2023-04-23T10:04:23;14.40;99.90
38902;DHT22;24661;53.566;9.910;2023-04-23T10:06:57;14.30;99.90
38902;DHT22;24661;53.566;9.910;2023-04-23T10:09:23;14.70;99.90
38902;DHT22;24661;53.566;9.910;2023-04-23T10:12:00;14.70;99.90
38902;DHT22;24661;53.566;9.910;2023-04-23T10:14:27;14.80;99.90
38902;DHT22;24661;53.566;9.910;2023-04-23T10:16:58;14.80;99.90
38902;DHT22;24661;53.566;9.910;2023-04-23T10:19:24;14.90;99.90
38902;DHT22;24661;53.566;9.910;2023-04-23T10:21:55;15.10;99.90
38902;DHT22;24661;53.566;9.910;2023-04-23T10:24:23;15.20;99.90
38902;DHT22;24661;53.566;9.910;2023-04-23T10:27:03;15.20;99.90
38902;DHT22;24661;53.566;9.910;2023-04-23T10:29:31;15.20;99.90
38902;DHT22;24661;53.566;9.910;2023-04-23T10:31:59;15.20;99.90
38902;DHT22;24661;53.566;9.910;2023-04-23T10:34:25;15.40;99.90
38902;DHT22;24661;53.566;9.910;2023-04-23T10:36:52;15.40;99.90
38902;DHT22;24661;53.566;9.910;2023-04-23T10:39:28;15.40;99.90
38902;DHT22;24661;53.566;9.910;2023-04-23T10:41:55;15.50;99.90
38902;DHT22;24661;53.566;9.910;2023-04-23T10:44:21;15.60;99.90
38902;DHT22;24661;53.566;9.910;2023-04-23T10:46:52;15.70;99.90
38902;DHT22;24661;53.566;9.910;2023-04-23T10:49:18;15.80;99.90
38902;DHT22;24661;53.566;9.910;2023-04-23T10:51:47;15.80;99.90
38902;DHT22;24661;53.566;9.910;2023-04-23T10:54:16;16.00;99.90
38902;DHT22;24661;53.566;9.910;2023-04-23T10:56:43;16.00;99.90
38902;DHT22;24661;53.566;9.910;2023-04-23T10:59:21;16.20;99.90
38902;DHT22;24661;53.566;9.910;2023-04-23T11:01:49;16.30;99.90
38902;DHT22;24661;53.566;9.910;2023-04-23T11:04:29;16.10;99.90
38902;DHT22;24661;53.566;9.910;2023-04-23T11:06:59;16.10;99.90
38902;DHT22;24661;53.566;9.910;2023-04-23T11:09:42;16.20;99.90
38902;DHT22;24661;53.566;9.910;2023-04-23T11:14:51;16.60;99.90
38902;DHT22;24661;53.566;9.910;2023-04-23T11:22:41;16.50;99.90
38902;DHT22;24661;53.566;9.910;2023-04-23T11:25:21;16.50;99.90
38902;DHT22;24661;53.566;9.910;2023-04-23T11:27:49;16.60;99.90
38902;DHT22;24661;53.566;9.910;2023-04-23T11:30:20;16.80;99.90
38902;DHT22;24661;53.566;9.910;2023-04-23T11:32:49;17.10;99.90
38902;DHT22;24661;53.566;9.910;2023-04-23T11:35:19;17.30;99.90
38902;DHT22;24661;53.566;9.910;2023-04-23T11:37:46;17.40;99.90
38902;DHT22;24661;53.566;9.910;2023-04-23T11:40:18;17.60;99.90
38902;DHT22;24661;53.566;9.910;2023-04-23T11:42:53;17.70;99.90
38902;DHT22;24661;53.566;9.910;2023-04-23T11:45:20;17.80;99.90
38902;DHT22;24661;53.566;9.910;2023-04-23T11:47:48;17.60;99.90
38902;DHT22;24661;53.566;9.910;2023-04-23T11:50:26;17.80;99.90
38902;DHT22;24661;53.566;9.910;2023-04-23T11:52:52;17.90;99.90
38902;DHT22;24661;53.566;9.910;2023-04-23T11:55:19;17.90;99.90
38902;DHT22;24661;53.566;9.910;2023-04-23T11:57:49;17.90;99.90
38902;DHT22;24661;53.566;9.910;2023-04-23T12:03:09;18.10;99.90
38902;DHT22;24661;53.566;9.910;2023-04-23T12:05:38;18.00;99.90
38902;DHT22;24661;53.566;9.910;2023-04-23T12:08:08;18.10;99.90
38902;DHT22;24661;53.566;9.910;2023-04-23T12:10:41;18.20;99.90
38902;DHT22;24661;53.566;9.910;2023-04-23T12:13:13;18.20;99.90
38902;DHT22;24661;53.566;9.910;2023-04-23T12:18:15;18.50;99.90
38902;DHT22;24661;53.566;9.910;2023-04-23T12:20:41;18.50;99.90
38902;DHT22;24661;53.566;9.910;2023-04-23T12:23:07;18.40;99.90
38902;DHT22;24661;53.566;9.910;2023-04-23T12:25:33;18.50;99.90
38902;DHT22;24661;53.566;9.910;2023-04-23T12:27:59;18.80;99.90
38902;DHT22;24661;53.566;9.910;2023-04-23T12:30:29;18.80;99.90
38902;DHT22;24661;53.566;9.910;2023-04-23T12:33:02;19.10;99.90
38902;DHT22;24661;53.566;9.910;2023-04-23T12:35:42;18.90;99.90
38902;DHT22;24661;53.566;9.910;2023-04-23T12:38:23;18.80;99.90
38902;DHT22;24661;53.566;9.910;2023-04-23T12:40:53;18.80;99.90
38902;DHT22;24661;53.566;9.910;2023-04-23T12:43:19;18.90;99.90
38902;DHT22;24661;53.566;9.910;2023-04-23T12:45:44;19.00;99.90
38902;DHT22;24661;53.566;9.910;2023-04-23T12:48:10;19.40;99.90
38902;DHT22;24661;53.566;9.910;2023-04-23T12:50:36;19.30;99.90
38902;DHT22;24661;53.566;9.910;2023-04-23T12:53:02;19.50;99.90
38902;DHT22;24661;53.566;9.910;2023-04-23T12:55:28;19.60;99.90
38902;DHT22;24661;53.566;9.910;2023-04-23T12:57:53;19.60;99.90
38902;DHT22;24661;53.566;9.910;2023-04-23T13:00:20;19.80;99.90
38902;DHT22;24661;53.566;9.910;2023-04-23T13:02:46;19.90;99.90
38902;DHT22;24661;53.566;9.910;2023-04-23T13:05:11;19.70;99.90
38902;DHT22;24661;53.566;9.910;2023-04-23T13:07:37;19.60;99.90
38902;DHT22;24661;53.566;9.910;2023-04-23T13:10:03;19.70;99.90
38902;DHT22;24661;53.566;9.910;2023-04-23T13:12:30;19.60;99.90
38902;DHT22;24661;53.566;9.910;2023-04-23T13:14:57;19.90;99.90
38902;DHT22;24661;53.566;9.910;2023-04-23T13:17:23;19.80;99.90
38902;DHT22;24661;53.566;9.910;2023-04-23T13:19:53;19.50;99.90
38902;DHT22;24661;53.566;9.910;2023-04-23T13:22:20;19.40;99.90
38902;DHT22;24661;53.566;9.910;2023-04-23T13:24:46;19.40;99.90
38902;DHT22;24661;53.566;9.910;2023-04-23T13:27:11;19.50;99.90
38902;DHT22;24661;53.566;9.910;2023-04-23T13:29:37;19.30;99.90
38902;DHT22;24661;53.566;9.910;2023-04-23T13:32:04;19.10;99.90
38902;DHT22;24661;53.566;9.910;2023-04-23T13:34:30;19.30;99.90
38902;DHT22;24661;53.566;9.910;2023-04-23T13:36:56;19.30;99.90
38902;DHT22;24661;53.566;9.910;2023-04-23T13:39:23;19.80;99.90
38902;DHT22;24661;53.566;9.910;2023-04-23T13:41:49;20.50;99.90
38902;DHT22;24661;53.566;9.910;2023-04-23T13:44:14;20.50;99.90
38902;DHT22;24661;53.566;9.910;2023-04-23T13:46:41;20.70;99.90
38902;DHT22;24661;53.566;9.910;2023-04-23T13:49:06;21.00;99.90
38902;DHT22;24661;53.566;9.910;2023-04-23T13:51:32;21.20;99.90
38902;DHT22;24661;53.566;9.910;2023-04-23T13:53:58;21.20;99.90
38902;DHT22;24661;53.566;9.910;2023-04-23T13:56:25;21.30;99.90
38902;DHT22;24661;53.566;9.910;2023-04-23T13:58:51;20.90;99.90
38902;DHT22;24661;53.566;9.910;2023-04-23T14:01:17;20.40;99.90
38902;DHT22;24661;53.566;9.910;2023-04-23T14:03:43;20.10;99.90
38902;DHT22;24661;53.566;9.910;2023-04-23T14:06:09;19.70;99.90
38902;DHT22;24661;53.566;9.910;2023-04-23T14:08:35;19.80;99.90
38902;DHT22;24661;53.566;9.910;2023-04-23T14:11:02;19.90;99.90
38902;DHT22;24661;53.566;9.910;2023-04-23T14:13:29;19.70;99.90
38902;DHT22;24661;53.566;9.910;2023-04-23T14:15:55;19.80;99.90
38902;DHT22;24661;53.566;9.910;2023-04-23T14:18:20;19.70;99.90
38902;DHT22;24661;53.566;9.910;2023-04-23T14:20:46;19.60;99.90
38902;DHT22;24661;53.566;9.910;2023-04-23T14:25:47;19.30;99.90
38902;DHT22;24661;53.566;9.910;2023-04-23T14:28:34;19.10;99.90
38902;DHT22;24661;53.566;9.910;2023-04-23T14:31:03;18.10;99.90
38902;DHT22;24661;53.566;9.910;2023-04-23T14:33:29;17.20;99.90
38902;DHT22;24661;53.566;9.910;2023-04-23T14:35:55;16.00;99.90
38902;DHT22;24661;53.566;9.910;2023-04-23T14:38:20;15.40;99.90
38902;DHT22;24661;53.566;9.910;2023-04-23T14:40:46;14.70;99.90
38902;DHT22;24661;53.566;9.910;2023-04-23T14:43:12;14.20;99.90
38902;DHT22;24661;53.566;9.910;2023-04-23T14:45:37;13.90;99.90
38902;DHT22;24661;53.566;9.910;2023-04-23T14:48:03;13.60;99.90
38902;DHT22;24661;53.566;9.910;2023-04-23T14:50:29;13.50;99.90
38902;DHT22;24661;53.566;9.910;2023-04-23T14:52:54;13.70;99.90
38902;DHT22;24661;53.566;9.910;2023-04-23T14:55:21;14.00;99.90
38902;DHT22;24661;53.566;9.910;2023-04-23T14:57:47;14.40;99.90
38902;DHT22;24661;53.566;9.910;2023-04-23T15:00:13;14.70;99.90
38902;DHT22;24661;53.566;9.910;2023-04-23T15:02:40;14.70;99.90
38902;DHT22;24661;53.566;9.910;2023-04-23T15:05:08;14.70;99.90
38902;DHT22;24661;53.566;9.910;2023-04-23T15:07:37;14.70;99.90
38902;DHT22;24661;53.566;9.910;2023-04-23T15:10:04;14.70;99.90
38902;DHT22;24661;53.566;9.910;2023-04-23T15:15:20;15.00;99.90
38902;DHT22;24661;53.566;9.910;2023-04-23T15:17:47;15.10;99.90
38902;DHT22;24661;53.566;9.910;2023-04-23T15:20:13;15.30;99.90
38902;DHT22;24661;53.566;9.910;2023-04-23T15:22:39;15.70;99.90
38902;DHT22;24661;53.566;9.910;2023-04-23T15:25:05;16.00;99.90
38902;DHT22;24661;53.566;9.910;2023-04-23T15:27:30;16.30;99.90
38902;DHT22;24661;53.566;9.910;2023-04-23T15:29:56;16.40;99.90
38902;DHT22;24661;53.566;9.910;2023-04-23T15:32:21;16.70;99.90
38902;DHT22;24661;53.566;9.910;2023-04-23T15:34:48;16.80;99.90
38902;DHT22;24661;53.566;9.910;2023-04-23T15:37:13;16.70;99.90
38902;DHT22;24661;53.566;9.910;2023-04-23T15:39:40;16.50;99.90
38902;DHT22;24661;53.566;9.910;2023-04-23T15:42:06;16.50;99.90
38902;DHT22;24661;53.566;9.910;2023-04-23T15:44:31;16.50;99.90
38902;DHT22;24661;53.566;9.910;2023-04-23T15:46:57;16.40;99.90
38902;DHT22;24661;53.566;9.910;2023-04-23T15:49:26;16.40;99.90